createdAt,value
2019-02-15T00:02:07.246Z,-6.12
2019-02-15T00:04:42.371Z,-6.15
2019-02-15T00:07:19.400Z,-6.10
2019-02-15T00:09:52.222Z,-6.15
2019-02-15T00:12:27.226Z,-6.10
2019-02-15T00:15:00.784Z,-6.24
2019-02-15T00:17:34.452Z,-6.06
2019-02-15T00:20:08.252Z,-6.05
2019-02-15T00:22:41.717Z,-6.01
2019-02-15T00:25:15.274Z,-5.88
2019-02-15T00:27:50.081Z,-6.10
2019-02-15T00:30:23.725Z,-6.09
2019-02-15T00:32:57.568Z,-6.02
2019-02-15T00:35:31.681Z,-5.93
2019-02-15T00:38:07.168Z,-5.88
2019-02-15T00:40:42.350Z,-5.91
2019-02-15T00:43:22.089Z,-5.94
2019-02-15T00:45:51.221Z,-5.83
2019-02-15T00:48:24.780Z,-5.71
2019-02-15T00:50:58.387Z,-5.71
2019-02-15T00:53:31.956Z,-5.66
2019-02-15T00:56:06.820Z,-5.46
2019-02-15T00:58:40.402Z,-5.54
2019-02-15T01:01:13.808Z,-5.44
2019-02-15T01:03:47.666Z,-5.33
2019-02-15T01:06:22.465Z,-5.30
2019-02-15T01:08:56.320Z,-5.24
2019-02-15T01:11:30.006Z,-5.19
2019-02-15T01:14:03.914Z,-5.28
2019-02-15T01:16:37.468Z,-5.38
2019-02-15T01:19:11.333Z,-5.28
2019-02-15T01:21:45.304Z,-5.25
2019-02-15T01:24:19.011Z,-5.23
2019-02-15T01:26:53.843Z,-5.10
2019-02-15T01:29:27.569Z,-5.28
2019-02-15T01:32:02.192Z,-5.29
2019-02-15T01:34:36.793Z,-5.14
2019-02-15T01:37:10.597Z,-5.20
2019-02-15T01:39:44.271Z,-5.12
2019-02-15T01:42:18.194Z,-4.99
2019-02-15T01:44:52.364Z,-4.98
2019-02-15T01:47:25.988Z,-5.04
2019-02-15T01:49:59.947Z,-4.97
2019-02-15T01:52:34.301Z,-4.96
2019-02-15T01:55:09.104Z,-4.81
2019-02-15T01:57:44.370Z,-4.88
2019-02-15T02:00:19.965Z,-4.75
2019-02-15T02:02:53.804Z,-4.62
2019-02-15T02:05:27.474Z,-4.57
2019-02-15T02:08:02.728Z,-4.57
2019-02-15T02:10:37.463Z,-4.62
2019-02-15T02:13:14.687Z,-4.57
2019-02-15T02:15:48.509Z,-4.60
2019-02-15T02:18:22.583Z,-4.59
2019-02-15T02:20:56.276Z,-4.68
2019-02-15T02:23:30.182Z,-4.68
2019-02-15T02:26:04.044Z,-4.47
2019-02-15T02:28:37.876Z,-4.26
2019-02-15T02:31:11.500Z,-4.30
2019-02-15T02:33:45.321Z,-4.17
2019-02-15T02:36:19.236Z,-4.18
2019-02-15T02:38:52.826Z,-4.17
2019-02-15T02:41:26.457Z,-4.07
2019-02-15T02:44:00.303Z,-3.95
2019-02-15T02:46:33.876Z,-3.81
2019-02-15T02:49:10.443Z,-3.71
2019-02-15T02:51:44.078Z,-3.89
2019-02-15T02:54:17.800Z,-3.89
2019-02-15T02:56:51.469Z,-3.81
2019-02-15T02:59:24.922Z,-3.61
2019-02-15T03:01:58.468Z,-3.52
2019-02-15T03:04:32.063Z,-3.50
2019-02-15T03:07:15.163Z,-4.11
2019-02-15T03:15:37.725Z,-4.15
2019-02-15T03:18:12.422Z,-4.03
2019-02-15T03:20:46.306Z,-4.29
2019-02-15T03:23:19.887Z,-4.50
2019-02-15T03:25:53.348Z,-4.36
2019-02-15T03:28:26.839Z,-4.36
2019-02-15T03:31:01.498Z,-4.71
2019-02-15T03:33:37.799Z,-4.71
2019-02-15T03:36:13.447Z,-4.80
2019-02-15T03:38:48.694Z,-4.58
2019-02-15T03:41:25.224Z,-4.46
2019-02-15T03:44:01.475Z,-4.16
2019-02-15T03:46:37.017Z,-3.77
2019-02-15T03:49:12.855Z,-3.51
2019-02-15T03:51:47.800Z,-3.47
2019-02-15T03:54:22.470Z,-3.55
2019-02-15T03:56:57.614Z,-3.53
2019-02-15T03:59:32.168Z,-3.90
2019-02-15T04:02:06.052Z,-3.58
2019-02-15T04:04:41.454Z,-3.41
2019-02-15T04:07:15.828Z,-3.71
2019-02-15T04:09:49.699Z,-3.42
2019-02-15T04:12:28.008Z,-3.42
2019-02-15T04:15:06.801Z,-3.15
2019-02-15T04:17:41.575Z,-3.05
2019-02-15T04:20:16.799Z,-3.15
2019-02-15T04:22:50.767Z,-3.57
2019-02-15T04:25:34.240Z,-3.66
2019-02-15T04:28:10.296Z,-4.24
2019-02-15T04:30:44.629Z,-3.87
2019-02-15T04:33:21.315Z,-4.02
2019-02-15T04:35:57.309Z,-4.04
2019-02-15T04:38:33.929Z,-3.61
2019-02-15T04:41:10.962Z,-3.60
2019-02-15T04:43:45.534Z,-3.94
2019-02-15T04:46:20.962Z,-4.19
2019-02-15T04:49:02.225Z,-4.17
2019-02-15T04:51:34.951Z,-4.11
2019-02-15T04:54:13.543Z,-3.60
2019-02-15T04:56:49.240Z,-3.74
2019-02-15T04:59:25.327Z,-4.18
2019-02-15T05:01:59.717Z,-3.96
2019-02-15T05:04:35.725Z,-3.72
2019-02-15T05:07:10.228Z,-3.96
2019-02-15T05:09:46.533Z,-4.03
2019-02-15T05:12:20.999Z,-3.86
2019-02-15T05:14:56.218Z,-4.05
2019-02-15T05:17:30.467Z,-4.18
2019-02-15T05:20:04.909Z,-4.04
2019-02-15T05:22:39.459Z,-3.42
2019-02-15T05:25:14.064Z,-3.31
2019-02-15T05:27:48.627Z,-3.36
2019-02-15T05:30:22.950Z,-3.26
2019-02-15T05:32:57.235Z,-3.67
2019-02-15T05:35:31.808Z,-3.80
2019-02-15T05:38:07.366Z,-4.16
2019-02-15T05:40:41.967Z,-4.13
2019-02-15T05:43:16.336Z,-3.93
2019-02-15T05:45:50.776Z,-3.93
2019-02-15T05:48:28.118Z,-4.02
2019-02-15T05:51:02.595Z,-4.56
2019-02-15T05:53:36.965Z,-4.39
2019-02-15T05:56:11.340Z,-4.53
2019-02-15T05:58:47.201Z,-4.57
2019-02-15T06:01:21.613Z,-4.44
2019-02-15T06:03:55.696Z,-4.51
2019-02-15T06:06:30.140Z,-4.86
2019-02-15T06:09:04.482Z,-4.70
2019-02-15T06:11:38.948Z,-4.60
2019-02-15T06:14:13.533Z,-4.54
2019-02-15T06:16:47.837Z,-4.62
2019-02-15T06:19:25.018Z,-4.79
2019-02-15T06:22:01.048Z,-4.81
2019-02-15T06:24:35.486Z,-4.71
2019-02-15T06:27:11.943Z,-5.02
2019-02-15T06:29:46.286Z,-4.87
2019-02-15T06:32:20.762Z,-4.70
2019-02-15T06:34:55.024Z,-4.59
2019-02-15T06:37:29.743Z,-4.80
2019-02-15T06:40:04.206Z,-4.65
2019-02-15T06:42:38.597Z,-4.75
2019-02-15T06:45:13.014Z,-4.77
2019-02-15T06:47:47.417Z,-4.52
2019-02-15T06:50:21.875Z,-4.30
2019-02-15T06:52:55.963Z,-4.02
2019-02-15T06:55:30.500Z,-4.09
2019-02-15T06:58:05.025Z,-4.08
2019-02-15T07:00:39.495Z,-4.46
2019-02-15T07:03:14.042Z,-4.53
2019-02-15T07:05:48.751Z,-4.54
2019-02-15T07:08:22.990Z,-4.41
2019-02-15T07:10:57.296Z,-4.59
2019-02-15T07:13:31.633Z,-4.65
2019-02-15T07:16:07.900Z,-4.86
2019-02-15T07:18:44.052Z,-4.85
2019-02-15T07:21:20.007Z,-4.66
2019-02-15T07:23:54.772Z,-4.50
2019-02-15T07:26:35.587Z,-4.79
2019-02-15T07:29:51.386Z,-4.60
2019-02-15T07:32:26.521Z,-4.70
2019-02-15T07:35:02.575Z,-4.63
2019-02-15T07:37:37.400Z,-4.65
2019-02-15T07:40:13.536Z,-5.04
2019-02-15T07:42:50.716Z,-4.84
2019-02-15T07:45:25.494Z,-4.72
2019-02-15T07:48:03.490Z,-4.82
2019-02-15T07:50:38.102Z,-4.85
2019-02-15T07:53:13.150Z,-4.90
2019-02-15T07:55:47.984Z,-5.12
2019-02-15T07:58:22.939Z,-5.23
2019-02-15T08:00:58.647Z,-5.15
2019-02-15T08:03:35.315Z,-5.16
2019-02-15T08:06:10.650Z,-5.32
2019-02-15T08:08:45.456Z,-5.37
2019-02-15T08:11:20.765Z,-5.32
2019-02-15T08:13:55.865Z,-5.37
2019-02-15T08:16:31.529Z,-5.31
2019-02-15T08:19:06.686Z,-5.26
2019-02-15T08:21:41.819Z,-5.33
2019-02-15T08:24:16.572Z,-5.25
2019-02-15T08:26:51.477Z,-5.20
2019-02-15T08:29:25.886Z,-5.28
2019-02-15T08:32:00.750Z,-5.41
2019-02-15T08:34:35.554Z,-5.38
2019-02-15T08:37:11.310Z,-5.51
2019-02-15T08:39:46.033Z,-5.57
2019-02-15T08:42:20.449Z,-5.66
2019-02-15T08:44:55.229Z,-5.63
2019-02-15T08:47:29.816Z,-5.56
2019-02-15T08:50:04.337Z,-5.45
2019-02-15T08:52:40.483Z,-5.42
2019-02-15T08:55:15.581Z,-5.48
2019-02-15T08:57:50.353Z,-5.50
2019-02-15T09:00:25.245Z,-5.48
2019-02-15T09:03:00.029Z,-5.59
2019-02-15T09:05:35.696Z,-5.66
2019-02-15T09:08:11.168Z,-5.63
2019-02-15T09:10:46.722Z,-5.68
2019-02-15T09:13:22.357Z,-5.84
2019-02-15T09:15:58.805Z,-5.83
2019-02-15T09:18:37.292Z,-6.05
2019-02-15T09:21:12.273Z,-6.05
2019-02-15T09:23:49.315Z,-5.86
2019-02-15T09:26:25.627Z,-5.94
2019-02-15T09:29:02.570Z,-5.91
2019-02-15T09:31:41.348Z,-5.82
2019-02-15T09:34:16.365Z,-5.86
2019-02-15T09:36:53.945Z,-5.93
2019-02-15T09:39:28.793Z,-5.97
2019-02-15T09:42:03.263Z,-5.92
2019-02-15T09:44:38.184Z,-5.82
2019-02-15T09:47:14.648Z,-5.96
2019-02-15T09:49:50.489Z,-5.89
2019-02-15T09:52:29.739Z,-5.84
2019-02-15T09:55:06.132Z,-5.81
2019-02-15T09:57:42.568Z,-5.81
2019-02-15T10:00:20.793Z,-5.76
2019-02-15T10:02:57.723Z,-5.79
2019-02-15T10:05:35.288Z,-5.75
2019-02-15T10:08:10.949Z,-5.93
2019-02-15T10:10:46.075Z,-5.91
2019-02-15T10:13:22.518Z,-5.85
2019-02-15T10:15:59.902Z,-5.80
2019-02-15T10:18:35.229Z,-5.86
2019-02-15T10:21:11.126Z,-6.06
2019-02-15T10:32:34.242Z,-6.03
2019-02-15T10:35:21.369Z,-6.07
2019-02-15T10:37:56.245Z,-6.08
2019-02-15T10:40:31.253Z,-6.13
2019-02-15T10:43:06.849Z,-6.27
2019-02-15T10:45:42.406Z,-6.28
2019-02-15T10:48:18.582Z,-6.25
2019-02-15T10:50:53.628Z,-6.40
2019-02-15T10:53:32.142Z,-6.43
2019-02-15T10:56:07.333Z,-6.41
2019-02-15T10:58:42.925Z,-6.44
2019-02-15T11:01:18.204Z,-6.46
2019-02-15T11:03:54.640Z,-6.51
2019-02-15T11:06:29.848Z,-6.52
2019-02-15T11:09:05.862Z,-6.49
2019-02-15T11:11:41.682Z,-6.51
2019-02-15T11:14:18.885Z,-6.42
2019-02-15T11:16:58.033Z,-6.56
2019-02-15T11:19:32.781Z,-6.60
2019-02-15T11:22:07.931Z,-6.52
2019-02-15T11:24:47.341Z,-6.48
2019-02-15T11:27:23.099Z,-6.57
2019-02-15T11:29:58.509Z,-6.47
2019-02-15T11:32:34.294Z,-6.37
2019-02-15T11:35:11.576Z,-6.40
2019-02-15T11:37:49.381Z,-6.47
2019-02-15T11:40:26.697Z,-6.37
2019-02-15T11:43:04.208Z,-6.31
2019-02-15T11:45:39.451Z,-6.55
2019-02-15T11:48:15.372Z,-6.38
2019-02-15T11:50:50.687Z,-6.35
2019-02-15T11:53:26.309Z,-6.42
2019-02-15T11:56:01.991Z,-6.46
2019-02-15T11:58:37.958Z,-6.42
2019-02-15T12:01:13.524Z,-6.44
2019-02-15T12:03:49.555Z,-6.46
2019-02-15T12:06:24.809Z,-6.38
2019-02-15T12:09:00.712Z,-6.41
2019-02-15T12:11:35.822Z,-6.60
2019-02-15T12:14:13.190Z,-6.60
2019-02-15T12:16:49.172Z,-6.51
2019-02-15T12:19:25.015Z,-6.48
2019-02-15T12:22:02.523Z,-6.50
2019-02-15T12:24:40.263Z,-6.46
2019-02-15T12:27:19.055Z,-6.47
2019-02-15T12:29:56.081Z,-6.50
2019-02-15T12:32:31.531Z,-6.54
2019-02-15T12:35:16.501Z,-6.53
2019-02-15T12:37:54.583Z,-6.50
2019-02-15T12:40:30.499Z,-6.65
2019-02-15T12:43:10.299Z,-6.54
2019-02-15T12:45:46.314Z,-6.65
2019-02-15T12:48:21.551Z,-6.65
2019-02-15T12:51:02.511Z,-6.58
2019-02-15T12:53:37.935Z,-6.49
2019-02-15T12:56:15.303Z,-6.57
2019-02-15T12:58:50.834Z,-6.56
2019-02-15T13:01:28.837Z,-6.67
2019-02-15T13:04:05.273Z,-6.64
2019-02-15T13:06:43.134Z,-6.61
2019-02-15T13:09:21.274Z,-6.62
2019-02-15T13:11:58.306Z,-6.78
2019-02-15T13:14:36.211Z,-6.66
2019-02-15T13:17:14.172Z,-6.59
2019-02-15T13:19:47.428Z,-6.53
2019-02-15T13:22:22.360Z,-6.50
2019-02-15T13:24:57.763Z,-6.63
2019-02-15T13:27:35.263Z,-6.59
2019-02-15T13:30:12.916Z,-6.54
2019-02-15T13:32:48.751Z,-6.50
2019-02-15T13:35:30.150Z,-6.49
2019-02-15T13:38:06.525Z,-6.48
2019-02-15T13:40:42.314Z,-6.61
2019-02-15T13:43:24.835Z,-6.57
2019-02-15T13:46:01.137Z,-6.68
2019-02-15T13:48:36.747Z,-6.79
2019-02-15T13:51:22.234Z,-6.77
2019-02-15T13:53:58.463Z,-6.89
2019-02-15T13:56:35.618Z,-6.96
2019-02-15T13:59:11.630Z,-7.05
2019-02-15T14:01:48.083Z,-7.11
2019-02-15T14:04:26.491Z,-7.17
2019-02-15T14:07:04.727Z,-7.36
2019-02-15T14:09:40.240Z,-7.39
2019-02-15T14:12:19.328Z,-7.51
2019-02-15T14:17:48.709Z,-7.66
2019-02-15T14:26:10.911Z,-7.93
2019-02-15T14:28:47.570Z,-7.93
2019-02-15T14:31:22.765Z,-8.07
2019-02-15T14:34:00.480Z,-8.23
2019-02-15T14:36:37.673Z,-8.27
2019-02-15T14:39:16.784Z,-8.32
2019-02-15T14:41:56.031Z,-8.25
2019-02-15T14:44:28.715Z,-8.41
2019-02-15T14:47:05.274Z,-8.49
2019-02-15T14:49:39.901Z,-8.65
2019-02-15T14:52:16.747Z,-8.77
2019-02-15T14:54:51.642Z,-8.85
2019-02-15T14:57:26.172Z,-8.88
2019-02-15T15:00:02.724Z,-8.98
2019-02-15T15:02:37.784Z,-9.06
2019-02-15T15:05:13.967Z,-9.16
2019-02-15T15:07:48.568Z,-9.14
2019-02-15T15:10:25.953Z,-9.10
2019-02-15T15:12:58.640Z,-9.15
2019-02-15T15:15:33.850Z,-9.29
2019-02-15T15:18:15.062Z,-9.43
2019-02-15T15:20:52.463Z,-9.53
2019-02-15T15:23:25.183Z,-9.69
2019-02-15T15:25:59.644Z,-9.69
2019-02-15T15:28:33.999Z,-9.70
2019-02-15T15:31:11.254Z,-9.68
2019-02-15T15:33:47.297Z,-9.72
2019-02-15T15:36:21.947Z,-9.68
2019-02-15T15:39:03.204Z,-9.69
2019-02-15T15:41:39.390Z,-9.62
2019-02-15T15:44:14.528Z,-9.55
2019-02-15T15:46:48.748Z,-9.49
2019-02-15T15:49:28.464Z,-9.27
2019-02-15T15:52:02.782Z,-9.16
2019-02-15T15:54:37.151Z,-9.21
2019-02-15T15:57:11.363Z,-9.28
2019-02-15T15:59:45.652Z,-9.29
2019-02-15T16:02:20.078Z,-9.25
2019-02-15T16:04:54.385Z,-9.29
2019-02-15T16:07:30.443Z,-9.27
2019-02-15T16:10:04.671Z,-9.31
2019-02-15T16:12:39.198Z,-9.41
2019-02-15T16:15:17.410Z,-9.51
2019-02-15T16:17:51.464Z,-9.48
2019-02-15T16:20:25.826Z,-9.53
2019-02-15T16:23:02.845Z,-9.52
2019-02-15T16:25:37.505Z,-9.57
2019-02-15T16:28:12.052Z,-9.66
2019-02-15T16:30:46.234Z,-9.70
2019-02-15T16:33:20.729Z,-9.62
2019-02-15T16:36:00.642Z,-9.73
2019-02-15T16:38:33.681Z,-9.82
2019-02-15T16:41:15.678Z,-9.78
2019-02-15T16:43:47.081Z,-9.73
2019-02-15T16:46:24.040Z,-9.71
2019-02-15T16:48:58.422Z,-9.70
2019-02-15T16:51:35.117Z,-9.73
2019-02-15T16:54:07.941Z,-9.99
2019-02-15T16:56:48.142Z,-10.01
2019-02-15T16:59:25.896Z,-10.05
2019-02-15T17:02:00.122Z,-10.36
2019-02-15T17:04:34.696Z,-10.41
2019-02-15T17:07:18.349Z,-10.22
2019-02-15T17:09:50.663Z,-10.37
2019-02-15T17:12:25.137Z,-10.43
2019-02-15T17:14:59.676Z,-10.46
2019-02-15T17:17:35.925Z,-10.28
2019-02-15T17:20:11.877Z,-10.17
2019-02-15T17:22:46.209Z,-9.95
2019-02-15T17:25:20.914Z,-9.85
2019-02-15T17:27:55.207Z,-9.93
2019-02-15T17:30:29.541Z,-9.92
2019-02-15T17:33:03.846Z,-10.05
2019-02-15T17:35:38.229Z,-10.12
2019-02-15T17:38:43.751Z,-10.09
2019-02-15T17:41:02.541Z,-10.28
2019-02-15T17:43:37.344Z,-10.42
2019-02-15T17:46:15.670Z,-10.43
2019-02-15T17:49:00.342Z,-10.51
2019-02-15T17:51:27.356Z,-10.46
2019-02-15T17:54:01.707Z,-10.40
2019-02-15T17:56:36.223Z,-10.42
2019-02-15T17:59:13.175Z,-10.57
2019-02-15T18:01:51.156Z,-10.51
2019-02-15T18:04:28.000Z,-10.65
2019-02-15T18:07:07.554Z,-10.65
2019-02-15T18:09:44.765Z,-10.76
2019-02-15T18:12:19.363Z,-10.86
2019-02-15T18:14:57.895Z,-10.82
2019-02-15T18:17:33.380Z,-10.82
2019-02-15T18:20:08.451Z,-11.04
2019-02-15T18:22:42.801Z,-11.06
2019-02-15T18:25:17.145Z,-11.04
2019-02-15T18:27:51.748Z,-11.11
2019-02-15T18:30:29.106Z,-11.14
2019-02-15T18:33:01.623Z,-11.18
2019-02-15T18:35:35.933Z,-11.22
2019-02-15T18:38:10.286Z,-11.24
2019-02-15T18:40:44.695Z,-11.23
2019-02-15T18:43:19.116Z,-11.19
2019-02-15T18:45:56.015Z,-11.28
2019-02-15T18:48:31.032Z,-11.23
2019-02-15T18:51:10.938Z,-11.25
2019-02-15T18:53:48.070Z,-11.11
2019-02-15T18:56:22.725Z,-11.27
2019-02-15T18:58:57.083Z,-11.37
2019-02-15T19:01:34.702Z,-11.40
2019-02-15T19:04:09.292Z,-11.35
2019-02-15T19:06:43.598Z,-11.32
2019-02-15T19:09:20.504Z,-11.38
2019-02-15T19:11:53.583Z,-11.31
2019-02-15T19:14:27.986Z,-11.28
2019-02-15T19:17:02.263Z,-11.28
2019-02-15T19:19:40.208Z,-11.31
2019-02-15T19:22:12.061Z,-11.20
2019-02-15T19:24:46.181Z,-11.23
2019-02-15T19:27:20.312Z,-11.19
2019-02-15T19:29:54.815Z,-11.25
2019-02-15T19:32:32.126Z,-11.23
2019-02-15T19:35:07.323Z,-11.24
2019-02-15T19:37:39.575Z,-11.24
2019-02-15T19:40:16.876Z,-11.20
2019-02-15T19:42:52.755Z,-11.15
2019-02-15T19:45:29.419Z,-11.16
2019-02-15T19:48:03.701Z,-11.19
2019-02-15T19:50:38.076Z,-11.18
2019-02-15T19:53:12.431Z,-10.98
2019-02-15T19:55:48.756Z,-11.06
2019-02-15T19:58:22.258Z,-11.11
2019-02-15T20:00:57.510Z,-11.16
2019-02-15T20:03:33.145Z,-11.13
2019-02-15T20:06:07.889Z,-11.10
2019-02-15T20:08:42.353Z,-11.06
2019-02-15T20:11:16.769Z,-10.99
2019-02-15T20:13:53.387Z,-11.01
2019-02-15T20:16:28.175Z,-11.04
2019-02-15T20:19:02.534Z,-11.03
2019-02-15T20:21:36.875Z,-11.01
2019-02-15T20:24:11.089Z,-11.07
2019-02-15T20:26:45.579Z,-11.01
2019-02-15T20:29:23.291Z,-10.99
2019-02-15T20:31:57.722Z,-11.15
2019-02-15T20:34:34.572Z,-11.16
2019-02-15T20:37:09.383Z,-11.24
2019-02-15T20:39:44.445Z,-11.20
2019-02-15T20:42:18.655Z,-11.18
2019-02-15T20:44:56.769Z,-11.10
2019-02-15T20:47:31.596Z,-11.16
2019-02-15T20:50:05.871Z,-11.01
2019-02-15T20:52:43.919Z,-11.00
2019-02-15T20:55:20.076Z,-11.03
2019-02-15T20:57:59.824Z,-10.95
2019-02-15T21:00:32.956Z,-10.95
2019-02-15T21:03:07.540Z,-10.96
2019-02-15T21:05:41.905Z,-10.92
2019-02-15T21:08:18.758Z,-11.09
2019-02-15T21:10:55.438Z,-10.98
2019-02-15T21:13:28.405Z,-11.13
2019-02-15T21:16:02.759Z,-11.02
2019-02-15T21:18:43.145Z,-10.97
2019-02-15T21:21:17.259Z,-11.04
2019-02-15T21:23:51.538Z,-10.90
2019-02-15T21:26:25.805Z,-10.89
2019-02-15T21:29:00.366Z,-10.84
2019-02-15T21:31:36.374Z,-11.00
2019-02-15T21:34:10.818Z,-11.03
2019-02-15T21:36:45.042Z,-11.05
2019-02-15T21:39:19.153Z,-11.15
2019-02-15T21:41:55.045Z,-11.08
2019-02-15T21:44:29.466Z,-11.07
2019-02-15T21:47:05.930Z,-11.03
2019-02-15T21:49:40.184Z,-11.02
2019-02-15T21:52:14.439Z,-10.94
2019-02-15T21:54:48.502Z,-10.92
2019-02-15T21:57:22.595Z,-11.01
2019-02-15T21:59:56.951Z,-11.08
2019-02-15T22:02:31.933Z,-11.05
2019-02-15T22:05:06.815Z,-11.09
2019-02-15T22:07:45.853Z,-11.07
2019-02-15T22:10:21.093Z,-11.14
2019-02-15T22:12:57.525Z,-11.16
2019-02-15T22:15:32.925Z,-11.22
2019-02-15T22:18:09.489Z,-11.16
2019-02-15T22:20:44.000Z,-11.14
2019-02-15T22:23:18.216Z,-11.15
2019-02-15T22:26:02.830Z,-11.11
2019-02-15T22:28:37.046Z,-11.07
2019-02-15T22:31:13.047Z,-11.09
2019-02-15T22:33:48.866Z,-11.04
2019-02-15T22:36:23.562Z,-11.05
2019-02-15T22:38:57.758Z,-11.06
2019-02-15T22:41:32.749Z,-11.08
2019-02-15T22:44:06.804Z,-11.10
2019-02-15T22:46:40.702Z,-11.11
2019-02-15T22:49:14.448Z,-11.26
2019-02-15T22:51:48.467Z,-11.40
2019-02-15T22:54:23.664Z,-11.27
2019-02-15T22:56:57.751Z,-11.29
2019-02-15T22:59:33.342Z,-11.37
2019-02-15T23:02:07.289Z,-11.46
2019-02-15T23:04:40.613Z,-11.47
2019-02-15T23:07:14.789Z,-11.60
2019-02-15T23:09:48.707Z,-11.65
2019-02-15T23:12:23.606Z,-11.59
2019-02-15T23:14:57.268Z,-11.43
2019-02-15T23:17:31.198Z,-11.43
2019-02-15T23:20:05.680Z,-11.30
2019-02-15T23:22:39.419Z,-11.38
2019-02-15T23:25:13.301Z,-11.42
2019-02-15T23:27:47.082Z,-11.45
2019-02-15T23:30:20.601Z,-11.26
2019-02-15T23:32:54.634Z,-11.14
2019-02-15T23:35:28.312Z,-11.08
2019-02-15T23:38:02.490Z,-10.99
2019-02-15T23:40:36.846Z,-11.13
2019-02-15T23:43:10.870Z,-11.06
2019-02-15T23:45:45.033Z,-11.03
2019-02-15T23:48:19.446Z,-10.82
2019-02-15T23:50:55.211Z,-10.63
2019-02-15T23:53:27.883Z,-10.52
2019-02-15T23:56:02.310Z,-10.49
2019-02-15T23:58:38.754Z,-10.59
